Hovedside
METAR-TAF:

METAR-TAF

Lufthavner :

Šiauliai, Litauen

breddegrad: 55-53-38N, lengdegrad: 023-23-42E, høyde over havet: 135 m

Gjeldene værobservasjon

Denne rapporten ble laget for 17 minutter siden, klokken 11:50 UTC
Vind 11 kt fra Sør-sørvest
Temperatur 1°C
Luftfuktighet 93%
Trykk 996 hPa
Sikt 10 km eller mer
Overskyet i en høyde av 1400 ft

METAR: EYSA 151150Z 20011KT 9999 OVC014 01/M00 Q0996 R14L/29//95 R14R/29//95 GRN TEMPO OVC016 WHT

Tid: 14:07 (12:07 UTC)

Varsel

Denne rapporten ble laget for 38 minutter siden, klokken 11:29 UTC
Varsel gyldig fra 15. klokken 12 UTC til 15. klokken 21 UTC
Vind 12 kt fra Sør
Sikt: 9000 m
Brutte skyer i en høyde av 1500 ft
Blir
fra 15. klokken 15 UTC til 15. klokken 16 UTC
Overskyet i en høyde av 500 ft
Midlertidig
fra 15. klokken 18 UTC til 15. klokken 21 UTC
Sikt: 2000 m
dis

TAF: EYSA 151129Z 1512/1521 19012KT 9000 BKN015 BECMG 1515/1516 OVC005 TEMPO 1518/1521 2000 BR

Værobservasjoner og værvarsel for over 4000 flyplasser (METAR- og TAF-rapporter).

Tilgjengelige stasjoner er representert av de røde og gule prikkene på kartet.

Hold musepekeren over prikken for å se navnet på stasjonen.

Klikk så for å se værobservasjoner og -varsler.

For å forandre kartet kan du klikke på den grønne knappen med svart kryss for å zoome inn, på den grønne knappen med strek for å zoome ut, eller på de grønne pilene for å se tilstøtende kart.


METAR-TAF: